createdAt,value
2022-09-11T00:01:37.721Z,15.56
2022-09-11T00:04:06.559Z,15.57
2022-09-11T00:06:35.102Z,15.55
2022-09-11T00:09:05.012Z,15.51
2022-09-11T00:11:35.299Z,15.47
2022-09-11T00:14:05.088Z,15.48
2022-09-11T00:16:35.472Z,15.46
2022-09-11T00:19:05.802Z,15.46
2022-09-11T00:21:34.398Z,15.46
2022-09-11T00:24:02.955Z,15.45
2022-09-11T00:26:31.041Z,15.44
2022-09-11T00:29:01.892Z,15.43
2022-09-11T00:31:32.629Z,15.42
2022-09-11T00:34:00.821Z,15.42
2022-09-11T00:36:31.701Z,15.40
2022-09-11T00:39:00.408Z,15.37
2022-09-11T00:41:30.495Z,15.35
2022-09-11T00:44:02.500Z,15.32
2022-09-11T00:46:38.389Z,15.29
2022-09-11T00:49:17.915Z,15.26
2022-09-11T00:51:49.306Z,15.23
2022-09-11T00:54:24.410Z,15.22
2022-09-11T00:56:53.789Z,15.21
2022-09-11T00:59:26.967Z,15.16
2022-09-11T01:01:56.615Z,15.15
2022-09-11T01:04:25.469Z,15.13
2022-09-11T01:06:57.230Z,15.12
2022-09-11T01:09:26.945Z,15.11
2022-09-11T01:12:06.983Z,15.12
2022-09-11T01:14:48.015Z,15.10
2022-09-11T01:17:27.972Z,15.08
2022-09-11T01:20:26.652Z,15.07
2022-09-11T01:23:25.282Z,15.04
2022-09-11T01:26:10.397Z,14.99
2022-09-11T01:28:46.691Z,14.95
2022-09-11T01:31:19.417Z,14.94
2022-09-11T01:33:52.253Z,14.90
2022-09-11T01:36:24.170Z,14.89
2022-09-11T01:38:56.757Z,14.88
2022-09-11T01:41:29.248Z,14.89
2022-09-11T01:44:03.880Z,14.90
2022-09-11T01:46:37.623Z,14.90
2022-09-11T01:49:09.901Z,14.90
2022-09-11T01:51:41.672Z,14.87
2022-09-11T01:54:14.629Z,14.85
2022-09-11T01:56:47.665Z,14.84
2022-09-11T01:59:22.054Z,14.83
2022-09-11T02:01:55.501Z,14.84
2022-09-11T02:04:27.133Z,14.82
2022-09-11T02:07:02.339Z,14.80
2022-09-11T02:09:38.504Z,14.80
2022-09-11T02:12:11.091Z,14.77
2022-09-11T02:14:43.164Z,14.77
2022-09-11T02:17:19.010Z,14.77
2022-09-11T02:19:47.244Z,14.76
2022-09-11T02:22:15.361Z,14.78
2022-09-11T02:24:43.901Z,14.81
2022-09-11T02:27:18.095Z,14.85
2022-09-11T02:29:48.007Z,14.90
2022-09-11T02:32:16.149Z,14.95
2022-09-11T02:34:45.550Z,14.97
2022-09-11T02:37:24.877Z,14.99
2022-09-11T02:40:24.512Z,15.03
2022-09-11T02:43:13.352Z,15.03
2022-09-11T02:45:54.472Z,15.03
2022-09-11T02:48:40.980Z,15.01
2022-09-11T02:51:19.774Z,15.00
2022-09-11T02:53:55.976Z,14.98
2022-09-11T02:56:32.857Z,14.97
2022-09-11T02:59:07.136Z,14.96
2022-09-11T03:01:50.077Z,14.96
2022-09-11T03:04:18.410Z,14.96
2022-09-11T03:06:48.599Z,14.96
2022-09-11T03:09:17.147Z,14.97
2022-09-11T03:11:45.809Z,14.98
2022-09-11T03:14:14.485Z,15.01
2022-09-11T03:16:42.806Z,15.04
2022-09-11T03:19:12.477Z,15.08
2022-09-11T03:21:40.502Z,15.11
2022-09-11T03:24:10.252Z,15.14
2022-09-11T03:26:38.432Z,15.16
2022-09-11T03:29:08.574Z,15.19
2022-09-11T03:31:39.225Z,15.21
2022-09-11T03:34:07.959Z,15.24
2022-09-11T03:36:38.045Z,15.27
2022-09-11T03:39:06.472Z,15.31
2022-09-11T03:41:34.507Z,15.32
2022-09-11T03:44:02.689Z,15.34
2022-09-11T03:46:33.063Z,15.35
2022-09-11T03:49:01.174Z,15.35
2022-09-11T03:51:30.112Z,15.34
2022-09-11T03:54:01.873Z,15.32
2022-09-11T03:56:29.912Z,15.31
2022-09-11T03:58:58.664Z,15.29
2022-09-11T04:01:26.979Z,15.27
2022-09-11T04:03:55.360Z,15.29
2022-09-11T04:06:23.536Z,15.28
2022-09-11T04:08:51.628Z,15.27
2022-09-11T04:11:21.368Z,15.28
2022-09-11T04:13:49.465Z,15.29
2022-09-11T04:16:32.811Z,15.30
2022-09-11T04:19:02.096Z,15.29
2022-09-11T04:21:30.288Z,15.32
2022-09-11T04:24:00.364Z,15.32
2022-09-11T04:26:29.792Z,15.32
2022-09-11T04:28:58.863Z,15.35
2022-09-11T04:31:28.770Z,15.35
2022-09-11T04:33:58.177Z,15.37
2022-09-11T04:36:27.270Z,15.37
2022-09-11T04:38:57.877Z,15.38
2022-09-11T04:41:26.722Z,15.38
2022-09-11T04:43:59.031Z,15.39
2022-09-11T04:46:30.568Z,15.39
2022-09-11T04:49:00.307Z,15.39
2022-09-11T04:51:30.241Z,15.40
2022-09-11T04:53:59.517Z,15.41
2022-09-11T04:56:29.334Z,15.41
2022-09-11T04:58:58.849Z,15.41
2022-09-11T05:01:28.681Z,15.41
2022-09-11T05:04:01.776Z,15.41
2022-09-11T05:06:30.557Z,15.40
2022-09-11T05:09:02.816Z,15.38
2022-09-11T05:11:31.255Z,15.38
2022-09-11T05:14:00.205Z,15.36
2022-09-11T05:16:29.393Z,15.35
2022-09-11T05:18:59.450Z,15.35
2022-09-11T05:21:28.954Z,15.33
2022-09-11T05:23:58.763Z,15.32
2022-09-11T05:26:28.770Z,15.32
2022-09-11T05:28:57.773Z,15.32
2022-09-11T05:31:26.656Z,15.32
2022-09-11T05:33:56.472Z,15.33
2022-09-11T05:36:26.379Z,15.32
2022-09-11T05:38:54.606Z,15.33
2022-09-11T05:41:22.646Z,15.33
2022-09-11T05:43:51.505Z,15.35
2022-09-11T05:46:20.802Z,15.35
2022-09-11T05:48:49.293Z,15.37
2022-09-11T05:51:20.082Z,15.39
2022-09-11T05:53:50.469Z,15.39
2022-09-11T05:56:20.687Z,15.40
2022-09-11T05:58:51.697Z,15.41
2022-09-11T06:01:21.467Z,15.40
2022-09-11T06:03:49.775Z,15.41
2022-09-11T06:06:19.509Z,15.42
2022-09-11T06:08:47.452Z,15.43
2022-09-11T06:11:21.988Z,15.45
2022-09-11T06:13:50.580Z,15.47
2022-09-11T06:16:20.550Z,15.50
2022-09-11T06:18:50.009Z,15.52
2022-09-11T06:21:20.275Z,15.52
2022-09-11T06:23:54.606Z,15.53
2022-09-11T06:26:26.338Z,15.53
2022-09-11T06:28:55.299Z,15.54
2022-09-11T06:31:25.513Z,15.55
2022-09-11T06:33:53.982Z,15.56
2022-09-11T06:36:23.950Z,15.57
2022-09-11T06:38:55.284Z,15.59
2022-09-11T06:41:25.854Z,15.62
2022-09-11T06:43:54.358Z,15.64
2022-09-11T06:46:24.212Z,15.65
2022-09-11T06:48:53.530Z,15.68
2022-09-11T06:51:23.380Z,15.70
2022-09-11T06:53:55.159Z,15.74
2022-09-11T06:56:25.106Z,15.77
2022-09-11T06:58:53.232Z,15.81
2022-09-11T07:01:22.576Z,15.87
2022-09-11T07:03:53.127Z,15.91
2022-09-11T07:06:22.477Z,15.96
2022-09-11T07:08:52.429Z,16.01
2022-09-11T07:11:20.922Z,16.07
2022-09-11T07:13:50.179Z,16.11
2022-09-11T07:16:18.160Z,16.15
2022-09-11T07:18:48.198Z,16.19
2022-09-11T07:21:18.596Z,16.22
2022-09-11T07:23:49.420Z,16.27
2022-09-11T07:26:17.781Z,16.30
2022-09-11T07:28:47.134Z,16.35
2022-09-11T07:31:20.835Z,16.40
2022-09-11T07:33:50.503Z,16.47
2022-09-11T07:36:20.585Z,16.54
2022-09-11T07:38:50.085Z,16.59
2022-09-11T07:41:19.670Z,16.64
2022-09-11T07:43:48.337Z,16.70
2022-09-11T07:46:18.100Z,16.73
2022-09-11T07:48:46.020Z,16.77
2022-09-11T07:51:15.873Z,16.81
2022-09-11T07:53:45.425Z,16.87
2022-09-11T07:56:15.923Z,16.96
2022-09-11T07:58:44.794Z,17.04
2022-09-11T08:01:14.481Z,17.13
2022-09-11T08:03:44.833Z,17.21
2022-09-11T08:06:16.882Z,17.29
2022-09-11T08:08:49.044Z,17.38
2022-09-11T08:11:18.755Z,17.46
2022-09-11T08:13:50.998Z,17.47
2022-09-11T08:16:19.533Z,17.48
2022-09-11T08:18:49.279Z,17.51
2022-09-11T08:21:17.748Z,17.52
2022-09-11T08:23:46.639Z,17.56
2022-09-11T08:26:16.442Z,17.57
2022-09-11T08:28:45.509Z,17.59
2022-09-11T08:31:14.869Z,17.61
2022-09-11T08:33:42.956Z,17.64
2022-09-11T08:36:14.693Z,17.66
2022-09-11T08:38:43.186Z,17.70
2022-09-11T08:41:13.908Z,17.72
2022-09-11T08:43:51.906Z,17.76
2022-09-11T08:46:23.120Z,17.80
2022-09-11T08:48:58.267Z,17.84
2022-09-11T08:51:27.582Z,17.91
2022-09-11T08:53:57.090Z,17.97
2022-09-11T08:56:26.168Z,18.02
2022-09-11T08:59:15.442Z,18.11
2022-09-11T09:01:53.170Z,18.13
2022-09-11T09:04:43.009Z,18.16
2022-09-11T09:07:28.342Z,18.17
2022-09-11T09:10:04.483Z,18.19
2022-09-11T09:12:43.268Z,18.24
2022-09-11T09:15:26.251Z,18.30
2022-09-11T09:18:01.577Z,18.39
2022-09-11T09:20:33.885Z,18.49
2022-09-11T09:23:07.896Z,18.55
2022-09-11T09:25:39.124Z,18.61
2022-09-11T09:28:17.102Z,18.67
2022-09-11T09:30:51.913Z,18.75
2022-09-11T09:33:30.837Z,18.79
2022-09-11T09:36:07.704Z,18.83
2022-09-11T09:38:36.998Z,18.88
2022-09-11T09:41:21.182Z,18.94
2022-09-11T09:44:00.433Z,18.98
2022-09-11T09:46:36.632Z,19.03
2022-09-11T09:49:05.390Z,19.12
2022-09-11T09:51:33.289Z,19.17
2022-09-11T09:54:03.750Z,19.25
2022-09-11T09:56:37.670Z,19.29
2022-09-11T09:59:18.165Z,19.29
2022-09-11T10:01:49.574Z,19.32
2022-09-11T10:04:22.003Z,19.36
2022-09-11T10:06:52.117Z,19.43
2022-09-11T10:09:28.177Z,19.48
2022-09-11T10:12:02.926Z,19.52
2022-09-11T10:14:51.106Z,19.57
2022-09-11T10:17:24.837Z,19.67
2022-09-11T10:19:57.104Z,19.72
2022-09-11T10:22:31.444Z,19.82
2022-09-11T10:25:07.403Z,19.91
2022-09-11T10:27:39.799Z,19.99
2022-09-11T10:30:26.484Z,20.09
2022-09-11T10:32:55.234Z,20.17
2022-09-11T10:35:25.840Z,20.26
2022-09-11T10:38:04.008Z,20.35
2022-09-11T10:40:33.738Z,20.41
2022-09-11T10:43:01.771Z,20.48
2022-09-11T10:45:29.689Z,20.53
2022-09-11T10:47:57.588Z,20.51
2022-09-11T10:50:28.805Z,20.47
2022-09-11T10:53:20.444Z,20.47
2022-09-11T10:56:00.215Z,20.48
2022-09-11T10:58:34.166Z,20.52
2022-09-11T11:01:02.367Z,20.56
2022-09-11T11:03:30.706Z,20.64
2022-09-11T11:06:13.849Z,20.78
2022-09-11T11:09:00.630Z,20.93
2022-09-11T11:11:42.882Z,21.11
2022-09-11T11:14:30.791Z,21.26
2022-09-11T11:17:06.071Z,21.34
2022-09-11T11:19:52.912Z,21.40
2022-09-11T11:22:34.496Z,21.44
2022-09-11T11:25:14.439Z,21.42
2022-09-11T11:28:11.775Z,21.45
2022-09-11T11:30:49.183Z,21.45
2022-09-11T11:33:35.502Z,21.44
2022-09-11T11:36:07.869Z,21.46
2022-09-11T11:38:41.381Z,21.52
2022-09-11T11:41:13.227Z,21.58
2022-09-11T11:43:45.530Z,21.67
2022-09-11T11:46:19.817Z,21.68
2022-09-11T11:48:54.886Z,21.77
2022-09-11T11:51:27.339Z,21.87
2022-09-11T11:54:01.109Z,21.94
2022-09-11T11:56:37.067Z,22.09
2022-09-11T11:59:16.300Z,22.22
2022-09-11T12:01:49.255Z,22.32
2022-09-11T12:04:33.990Z,22.35
2022-09-11T12:07:04.608Z,22.37
2022-09-11T12:09:34.112Z,22.41
2022-09-11T12:12:07.658Z,22.40
2022-09-11T12:14:37.427Z,22.35
2022-09-11T12:17:20.350Z,22.27
2022-09-11T12:20:31.799Z,22.12
2022-09-11T12:23:00.794Z,21.99
2022-09-11T12:25:50.803Z,21.85
2022-09-11T12:28:24.789Z,21.76
2022-09-11T12:31:06.173Z,21.70
2022-09-11T12:33:56.045Z,21.71
2022-09-11T12:36:32.695Z,21.78
2022-09-11T12:39:04.271Z,21.83
2022-09-11T12:41:35.001Z,21.85
2022-09-11T12:44:04.915Z,21.83
2022-09-11T12:47:16.635Z,21.81
2022-09-11T12:49:56.162Z,21.79
2022-09-11T12:52:37.713Z,21.86
2022-09-11T12:55:24.117Z,21.97
2022-09-11T12:57:52.568Z,22.12
2022-09-11T13:00:24.504Z,22.21
2022-09-11T13:02:56.941Z,22.29
2022-09-11T13:05:30.231Z,22.34
2022-09-11T13:08:01.064Z,22.37
2022-09-11T13:10:35.178Z,22.40
2022-09-11T13:13:05.103Z,22.42
2022-09-11T13:15:43.942Z,22.43
2022-09-11T13:18:35.950Z,22.45
2022-09-11T13:21:15.229Z,22.50
2022-09-11T13:23:43.724Z,22.50
2022-09-11T13:26:25.560Z,22.39
2022-09-11T13:28:56.230Z,22.28
2022-09-11T13:31:33.903Z,22.15
2022-09-11T13:34:04.078Z,22.08
2022-09-11T13:36:37.525Z,22.04
2022-09-11T13:39:06.329Z,22.00
2022-09-11T13:41:39.101Z,21.94
2022-09-11T13:44:12.531Z,21.85
2022-09-11T13:46:51.243Z,21.76
2022-09-11T13:49:30.137Z,21.75
2022-09-11T13:52:00.604Z,21.72
2022-09-11T13:54:32.176Z,21.70
2022-09-11T13:57:14.215Z,21.67
2022-09-11T13:59:49.025Z,21.68
2022-09-11T14:02:31.164Z,21.66
2022-09-11T14:05:08.794Z,21.65
2022-09-11T14:07:45.400Z,21.59
2022-09-11T14:10:21.677Z,21.54
2022-09-11T14:12:53.768Z,21.52
2022-09-11T14:15:30.492Z,21.46
2022-09-11T14:18:03.003Z,21.43
2022-09-11T14:20:31.246Z,21.38
2022-09-11T14:23:05.828Z,21.36
2022-09-11T14:25:34.905Z,21.34
2022-09-11T14:28:03.250Z,21.36
2022-09-11T14:30:37.124Z,21.38
2022-09-11T14:33:23.892Z,21.42
2022-09-11T14:35:54.980Z,21.43
2022-09-11T14:38:26.365Z,21.45
2022-09-11T14:41:00.960Z,21.49
2022-09-11T14:43:32.881Z,21.48
2022-09-11T14:46:01.979Z,21.48
2022-09-11T14:48:31.785Z,21.47
2022-09-11T14:51:00.366Z,21.46
2022-09-11T14:53:33.350Z,21.45
2022-09-11T14:56:02.907Z,21.42
2022-09-11T14:58:31.291Z,21.42
2022-09-11T15:00:59.533Z,21.46
2022-09-11T15:03:27.573Z,21.49
2022-09-11T15:05:58.138Z,21.53
2022-09-11T15:08:26.545Z,21.61
2022-09-11T15:10:55.938Z,21.64
2022-09-11T15:13:23.880Z,21.70
2022-09-11T15:15:52.166Z,21.75
2022-09-11T15:18:20.245Z,21.75
2022-09-11T15:20:48.164Z,21.76
2022-09-11T15:23:16.709Z,21.75
2022-09-11T15:25:44.695Z,21.72
2022-09-11T15:28:14.249Z,21.67
2022-09-11T15:30:42.917Z,21.60
2022-09-11T15:33:11.528Z,21.56
2022-09-11T15:35:39.398Z,21.52
2022-09-11T15:38:07.902Z,21.50
2022-09-11T15:40:36.648Z,21.50
2022-09-11T15:43:04.508Z,21.46
2022-09-11T15:45:34.376Z,21.47
2022-09-11T15:48:02.389Z,21.46
2022-09-11T15:50:30.316Z,21.46
2022-09-11T15:52:58.791Z,21.48
2022-09-11T15:55:30.177Z,21.51
2022-09-11T15:58:00.845Z,21.55
2022-09-11T16:00:29.437Z,21.58
2022-09-11T16:02:58.739Z,21.59
2022-09-11T16:05:26.717Z,21.61
2022-09-11T16:07:54.594Z,21.60
2022-09-11T16:10:23.355Z,21.59
2022-09-11T16:12:53.554Z,21.60
2022-09-11T16:15:25.193Z,21.64
2022-09-11T16:17:53.076Z,21.71
2022-09-11T16:20:22.306Z,21.78
2022-09-11T16:22:50.779Z,21.79
2022-09-11T16:25:19.738Z,21.77
2022-09-11T16:27:48.095Z,21.76
2022-09-11T16:30:41.765Z,21.73
2022-09-11T16:33:04.236Z,21.72
2022-09-11T16:35:34.171Z,21.69
2022-09-11T16:38:02.146Z,21.70
2022-09-11T16:40:30.151Z,21.69
2022-09-11T16:42:58.512Z,21.69
2022-09-11T16:45:26.546Z,21.68
2022-09-11T16:47:54.504Z,21.68
2022-09-11T16:50:23.650Z,21.64
2022-09-11T16:52:54.346Z,21.63
2022-09-11T16:55:22.498Z,21.64
2022-09-11T16:57:50.462Z,21.66
2022-09-11T17:00:18.517Z,21.67
2022-09-11T17:02:46.543Z,21.64
2022-09-11T17:05:18.508Z,21.58
2022-09-11T17:07:46.526Z,21.48
2022-09-11T17:10:15.862Z,21.38
2022-09-11T17:12:43.787Z,21.29
2022-09-11T17:15:12.191Z,21.23
2022-09-11T17:17:41.140Z,21.19
2022-09-11T17:20:11.847Z,21.16
2022-09-11T17:22:40.399Z,21.13
2022-09-11T17:25:09.011Z,21.08
2022-09-11T17:27:38.617Z,21.04
2022-09-11T17:30:07.237Z,20.99
2022-09-11T17:32:35.108Z,20.96
2022-09-11T17:35:02.988Z,20.95
2022-09-11T17:37:30.850Z,20.94
2022-09-11T17:39:58.966Z,20.91
2022-09-11T17:42:28.765Z,20.86
2022-09-11T17:44:58.103Z,20.82
2022-09-11T17:47:26.363Z,20.78
2022-09-11T17:49:54.240Z,20.74
2022-09-11T17:52:22.127Z,20.70
2022-09-11T17:54:50.098Z,20.67
2022-09-11T17:57:17.941Z,20.62
2022-09-11T17:59:48.956Z,20.58
2022-09-11T18:02:19.749Z,20.54
2022-09-11T18:04:48.224Z,20.48
2022-09-11T18:07:16.466Z,20.42
2022-09-11T18:09:44.617Z,20.35
2022-09-11T18:12:12.943Z,20.33
2022-09-11T18:14:43.297Z,20.27
2022-09-11T18:17:11.557Z,20.24
2022-09-11T18:19:40.861Z,20.18
2022-09-11T18:22:09.866Z,20.14
2022-09-11T18:24:39.851Z,20.10
2022-09-11T18:27:09.772Z,20.05
2022-09-11T18:29:39.972Z,19.99
2022-09-11T18:32:09.900Z,19.95
2022-09-11T18:34:38.446Z,19.91
2022-09-11T18:37:08.386Z,19.86
2022-09-11T18:39:36.263Z,19.83
2022-09-11T18:42:06.248Z,19.79
2022-09-11T18:44:34.161Z,19.77
2022-09-11T18:47:02.307Z,19.76
2022-09-11T18:49:30.310Z,19.74
2022-09-11T18:52:00.302Z,19.74
2022-09-11T18:54:31.615Z,19.73
2022-09-11T18:57:00.186Z,19.72
2022-09-11T18:59:28.765Z,19.70
2022-09-11T19:01:57.133Z,19.67
2022-09-11T19:04:26.122Z,19.64
2022-09-11T19:06:54.005Z,19.59
2022-09-11T19:09:21.856Z,19.56
2022-09-11T19:11:52.428Z,19.53
2022-09-11T19:14:21.090Z,19.51
2022-09-11T19:16:49.298Z,19.49
2022-09-11T19:19:17.202Z,19.48
2022-09-11T19:21:45.937Z,19.49
2022-09-11T19:24:13.909Z,19.49
2022-09-11T19:26:43.570Z,19.48
2022-09-11T19:29:15.828Z,19.48
2022-09-11T19:31:43.857Z,19.46
2022-09-11T19:34:13.158Z,19.45
2022-09-11T19:36:42.175Z,19.44
2022-09-11T19:39:11.320Z,19.41
2022-09-11T19:41:40.288Z,19.37
2022-09-11T19:44:12.173Z,19.36
2022-09-11T19:46:46.073Z,19.32
2022-09-11T19:49:14.069Z,19.30
2022-09-11T19:51:44.841Z,19.29
2022-09-11T19:54:13.813Z,19.28
2022-09-11T19:56:44.375Z,19.29
2022-09-11T19:59:13.873Z,19.28
2022-09-11T20:01:42.079Z,19.27
2022-09-11T20:04:13.697Z,19.29
2022-09-11T20:06:41.755Z,19.30
2022-09-11T20:09:30.361Z,19.28
2022-09-11T20:12:00.498Z,19.26
2022-09-11T20:18:29.857Z,19.23
2022-09-11T20:21:03.200Z,19.20
2022-09-11T20:23:31.136Z,19.20
2022-09-11T20:26:10.082Z,19.21
2022-09-11T20:28:40.279Z,19.21
2022-09-11T20:31:15.682Z,19.20
2022-09-11T20:33:45.150Z,19.20
2022-09-11T20:36:15.014Z,19.18
2022-09-11T20:38:43.439Z,19.17
2022-09-11T20:41:13.603Z,19.14
2022-09-11T20:43:41.726Z,19.12
2022-09-11T20:46:10.314Z,19.08
2022-09-11T20:48:38.599Z,19.05
2022-09-11T20:51:10.160Z,19.01
2022-09-11T20:53:41.727Z,18.99
2022-09-11T20:56:11.585Z,18.97
2022-09-11T20:58:40.233Z,18.95
2022-09-11T21:01:09.249Z,18.95
2022-09-11T21:03:37.188Z,18.92
2022-09-11T21:06:09.466Z,18.89
2022-09-11T21:08:40.054Z,18.85
2022-09-11T21:11:08.714Z,18.82
2022-09-11T21:13:37.347Z,18.77
2022-09-11T21:16:09.963Z,18.71
2022-09-11T21:18:38.734Z,18.68
2022-09-11T21:21:07.948Z,18.66
2022-09-11T21:23:35.849Z,18.64
2022-09-11T21:26:08.199Z,18.63
2022-09-11T21:28:36.205Z,18.62
2022-09-11T21:31:04.279Z,18.62
2022-09-11T21:33:34.085Z,18.63
2022-09-11T21:36:02.036Z,18.62
2022-09-11T21:38:30.520Z,18.63
2022-09-11T21:41:00.206Z,18.64
2022-09-11T21:43:29.855Z,18.65
2022-09-11T21:45:58.100Z,18.66
2022-09-11T21:48:26.062Z,18.67
2022-09-11T21:50:54.593Z,18.68
2022-09-11T21:53:22.831Z,18.67
2022-09-11T21:55:50.796Z,18.67
2022-09-11T21:58:21.398Z,18.67
2022-09-11T22:00:51.278Z,18.66
2022-09-11T22:03:20.154Z,18.68
2022-09-11T22:05:51.222Z,18.69
2022-09-11T22:08:20.362Z,18.68
2022-09-11T22:10:51.013Z,18.69
2022-09-11T22:13:20.291Z,18.69
2022-09-11T22:15:51.312Z,18.69
2022-09-11T22:18:20.040Z,18.69
2022-09-11T22:20:48.089Z,18.69
2022-09-11T22:23:17.248Z,18.69
2022-09-11T22:25:45.846Z,18.68
2022-09-11T22:28:13.989Z,18.68
2022-09-11T22:30:42.595Z,18.67
2022-09-11T22:33:12.324Z,18.66
2022-09-11T22:35:40.266Z,18.66
2022-09-11T22:38:08.182Z,18.65
2022-09-11T22:40:36.113Z,18.65
2022-09-11T22:43:04.126Z,18.64
2022-09-11T22:45:32.134Z,18.65
2022-09-11T22:48:00.486Z,18.64
2022-09-11T22:50:29.858Z,18.64
2022-09-11T22:52:57.838Z,18.64
2022-09-11T22:55:25.789Z,18.65
2022-09-11T22:57:53.749Z,18.64
2022-09-11T23:00:21.952Z,18.63
2022-09-11T23:02:49.899Z,18.63
2022-09-11T23:05:35.357Z,18.63
2022-09-11T23:08:04.810Z,18.62
2022-09-11T23:10:35.630Z,18.61
2022-09-11T23:13:03.729Z,18.61
2022-09-11T23:15:31.667Z,18.61
2022-09-11T23:17:59.748Z,18.61
2022-09-11T23:20:29.846Z,18.62
2022-09-11T23:22:57.873Z,18.61
2022-09-11T23:25:27.210Z,18.60
2022-09-11T23:27:55.158Z,18.61
2022-09-11T23:30:23.060Z,18.61
2022-09-11T23:32:53.562Z,18.59
2022-09-11T23:35:21.515Z,18.59
2022-09-11T23:37:49.509Z,18.59
2022-09-11T23:40:17.580Z,18.58
2022-09-11T23:42:46.968Z,18.58
2022-09-11T23:45:16.629Z,18.57
2022-09-11T23:47:44.693Z,18.56
2022-09-11T23:50:12.670Z,18.56
2022-09-11T23:52:40.639Z,18.55
2022-09-11T23:55:09.136Z,18.53
2022-09-11T23:57:37.276Z,18.51
